sensor_id;sensor_type;location;lat;lon;timestamp;P1;durP1;ratioP1;P2;durP2;ratioP2
12407;SDS011;6268;48.188;17.134;2023-09-18T00:01:02;10.00;;;9.13;;
12407;SDS011;6268;48.188;17.134;2023-09-18T00:03:31;10.60;;;9.80;;
12407;SDS011;6268;48.188;17.134;2023-09-18T00:05:59;10.85;;;9.88;;
12407;SDS011;6268;48.188;17.134;2023-09-18T00:08:28;10.40;;;9.70;;
12407;SDS011;6268;48.188;17.134;2023-09-18T00:10:56;10.70;;;9.75;;
12407;SDS011;6268;48.188;17.134;2023-09-18T00:13:27;10.80;;;9.95;;
12407;SDS011;6268;48.188;17.134;2023-09-18T00:15:57;11.25;;;10.45;;
12407;SDS011;6268;48.188;17.134;2023-09-18T00:18:26;11.27;;;10.40;;
12407;SDS011;6268;48.188;17.134;2023-09-18T00:20:55;13.13;;;12.00;;
12407;SDS011;6268;48.188;17.134;2023-09-18T00:23:24;12.18;;;11.15;;
12407;SDS011;6268;48.188;17.134;2023-09-18T00:25:53;12.43;;;11.43;;
12407;SDS011;6268;48.188;17.134;2023-09-18T00:28:21;12.85;;;11.80;;
12407;SDS011;6268;48.188;17.134;2023-09-18T00:30:50;12.35;;;11.23;;
12407;SDS011;6268;48.188;17.134;2023-09-18T00:33:20;13.48;;;12.38;;
12407;SDS011;6268;48.188;17.134;2023-09-18T00:35:49;13.13;;;11.93;;
12407;SDS011;6268;48.188;17.134;2023-09-18T00:38:18;13.45;;;12.35;;
12407;SDS011;6268;48.188;17.134;2023-09-18T00:40:47;13.82;;;12.73;;
12407;SDS011;6268;48.188;17.134;2023-09-18T00:43:15;13.68;;;12.45;;
12407;SDS011;6268;48.188;17.134;2023-09-18T00:45:45;15.05;;;13.75;;
12407;SDS011;6268;48.188;17.134;2023-09-18T00:48:15;15.20;;;14.00;;
12407;SDS011;6268;48.188;17.134;2023-09-18T00:50:46;15.23;;;14.02;;
12407;SDS011;6268;48.188;17.134;2023-09-18T00:53:17;15.45;;;13.98;;
12407;SDS011;6268;48.188;17.134;2023-09-18T00:55:48;16.10;;;14.80;;
12407;SDS011;6268;48.188;17.134;2023-09-18T00:58:18;14.10;;;13.00;;
12407;SDS011;6268;48.188;17.134;2023-09-18T01:00:47;14.73;;;13.48;;
12407;SDS011;6268;48.188;17.134;2023-09-18T01:03:18;15.30;;;14.10;;
12407;SDS011;6268;48.188;17.134;2023-09-18T01:05:49;15.75;;;14.45;;
12407;SDS011;6268;48.188;17.134;2023-09-18T01:08:17;17.48;;;16.00;;
12407;SDS011;6268;48.188;17.134;2023-09-18T01:10:47;16.70;;;15.30;;
12407;SDS011;6268;48.188;17.134;2023-09-18T01:13:22;15.98;;;14.75;;
12407;SDS011;6268;48.188;17.134;2023-09-18T01:15:57;17.83;;;16.23;;
12407;SDS011;6268;48.188;17.134;2023-09-18T01:18:32;16.85;;;15.52;;
12407;SDS011;6268;48.188;17.134;2023-09-18T01:21:02;17.40;;;15.90;;
12407;SDS011;6268;48.188;17.134;2023-09-18T01:23:32;18.15;;;16.65;;
12407;SDS011;6268;48.188;17.134;2023-09-18T01:26:01;17.65;;;16.25;;
12407;SDS011;6268;48.188;17.134;2023-09-18T01:28:29;19.02;;;17.45;;
12407;SDS011;6268;48.188;17.134;2023-09-18T01:30:58;18.13;;;16.42;;
12407;SDS011;6268;48.188;17.134;2023-09-18T01:33:26;18.88;;;17.38;;
12407;SDS011;6268;48.188;17.134;2023-09-18T01:35:56;18.92;;;17.30;;
12407;SDS011;6268;48.188;17.134;2023-09-18T01:38:26;19.90;;;18.08;;
12407;SDS011;6268;48.188;17.134;2023-09-18T01:40:57;18.80;;;17.17;;
12407;SDS011;6268;48.188;17.134;2023-09-18T01:43:26;20.45;;;18.65;;
12407;SDS011;6268;48.188;17.134;2023-09-18T01:45:54;20.67;;;18.85;;
12407;SDS011;6268;48.188;17.134;2023-09-18T01:48:23;28.58;;;25.92;;
12407;SDS011;6268;48.188;17.134;2023-09-18T01:50:52;27.17;;;24.63;;
12407;SDS011;6268;48.188;17.134;2023-09-18T01:53:20;33.08;;;29.88;;
12407;SDS011;6268;48.188;17.134;2023-09-18T01:55:49;26.25;;;23.95;;
12407;SDS011;6268;48.188;17.134;2023-09-18T01:58:19;23.08;;;21.08;;
12407;SDS011;6268;48.188;17.134;2023-09-18T02:00:48;21.45;;;19.58;;
12407;SDS011;6268;48.188;17.134;2023-09-18T02:03:17;21.95;;;20.05;;
12407;SDS011;6268;48.188;17.134;2023-09-18T02:06:07;21.45;;;19.65;;
12407;SDS011;6268;48.188;17.134;2023-09-18T02:08:36;20.02;;;18.33;;
12407;SDS011;6268;48.188;17.134;2023-09-18T02:11:05;22.48;;;20.52;;
12407;SDS011;6268;48.188;17.134;2023-09-18T02:13:35;20.67;;;19.08;;
12407;SDS011;6268;48.188;17.134;2023-09-18T02:16:03;21.98;;;20.00;;
12407;SDS011;6268;48.188;17.134;2023-09-18T02:18:32;22.73;;;20.83;;
12407;SDS011;6268;48.188;17.134;2023-09-18T02:21:00;21.92;;;20.15;;
12407;SDS011;6268;48.188;17.134;2023-09-18T02:23:29;22.80;;;20.80;;
12407;SDS011;6268;48.188;17.134;2023-09-18T02:25:58;22.90;;;20.70;;
12407;SDS011;6268;48.188;17.134;2023-09-18T02:28:27;23.30;;;21.25;;
12407;SDS011;6268;48.188;17.134;2023-09-18T02:30:57;21.67;;;19.67;;
12407;SDS011;6268;48.188;17.134;2023-09-18T02:33:25;21.45;;;19.65;;
12407;SDS011;6268;48.188;17.134;2023-09-18T02:35:54;23.27;;;21.38;;
12407;SDS011;6268;48.188;17.134;2023-09-18T02:38:24;22.45;;;20.55;;
12407;SDS011;6268;48.188;17.134;2023-09-18T02:40:52;22.63;;;20.70;;
12407;SDS011;6268;48.188;17.134;2023-09-18T02:43:21;21.80;;;19.80;;
12407;SDS011;6268;48.188;17.134;2023-09-18T02:45:49;22.52;;;20.67;;
12407;SDS011;6268;48.188;17.134;2023-09-18T02:48:19;22.75;;;20.85;;
12407;SDS011;6268;48.188;17.134;2023-09-18T02:50:48;22.83;;;20.60;;
12407;SDS011;6268;48.188;17.134;2023-09-18T02:53:17;23.70;;;21.77;;
12407;SDS011;6268;48.188;17.134;2023-09-18T02:55:47;22.00;;;20.00;;
12407;SDS011;6268;48.188;17.134;2023-09-18T02:58:17;22.58;;;20.77;;
12407;SDS011;6268;48.188;17.134;2023-09-18T03:00:47;23.10;;;21.05;;
12407;SDS011;6268;48.188;17.134;2023-09-18T03:03:16;23.27;;;21.27;;
12407;SDS011;6268;48.188;17.134;2023-09-18T03:05:46;23.55;;;21.65;;
12407;SDS011;6268;48.188;17.134;2023-09-18T03:08:15;22.27;;;20.40;;
12407;SDS011;6268;48.188;17.134;2023-09-18T03:10:44;24.92;;;22.73;;
12407;SDS011;6268;48.188;17.134;2023-09-18T03:13:13;21.77;;;19.88;;
12407;SDS011;6268;48.188;17.134;2023-09-18T03:15:45;23.10;;;21.10;;
12407;SDS011;6268;48.188;17.134;2023-09-18T03:18:14;22.95;;;20.95;;
12407;SDS011;6268;48.188;17.134;2023-09-18T03:20:43;22.23;;;20.35;;
12407;SDS011;6268;48.188;17.134;2023-09-18T03:23:13;21.95;;;20.15;;
12407;SDS011;6268;48.188;17.134;2023-09-18T03:25:42;23.98;;;21.83;;
12407;SDS011;6268;48.188;17.134;2023-09-18T03:28:16;22.80;;;20.65;;
12407;SDS011;6268;48.188;17.134;2023-09-18T03:30:45;22.77;;;20.88;;
12407;SDS011;6268;48.188;17.134;2023-09-18T03:33:13;22.80;;;20.90;;
12407;SDS011;6268;48.188;17.134;2023-09-18T03:35:46;23.73;;;21.58;;
12407;SDS011;6268;48.188;17.134;2023-09-18T03:38:17;23.30;;;21.33;;
12407;SDS011;6268;48.188;17.134;2023-09-18T03:40:46;25.88;;;23.58;;
12407;SDS011;6268;48.188;17.134;2023-09-18T03:43:15;24.65;;;22.42;;
12407;SDS011;6268;48.188;17.134;2023-09-18T03:45:44;23.23;;;21.30;;
12407;SDS011;6268;48.188;17.134;2023-09-18T03:48:12;25.10;;;22.90;;
12407;SDS011;6268;48.188;17.134;2023-09-18T03:50:41;24.67;;;22.42;;
12407;SDS011;6268;48.188;17.134;2023-09-18T03:53:10;23.52;;;21.33;;
12407;SDS011;6268;48.188;17.134;2023-09-18T03:55:40;26.00;;;23.70;;
12407;SDS011;6268;48.188;17.134;2023-09-18T03:58:08;25.60;;;23.30;;
12407;SDS011;6268;48.188;17.134;2023-09-18T04:00:37;25.17;;;22.88;;
12407;SDS011;6268;48.188;17.134;2023-09-18T04:03:06;24.88;;;22.75;;
12407;SDS011;6268;48.188;17.134;2023-09-18T04:05:36;23.23;;;21.23;;
12407;SDS011;6268;48.188;17.134;2023-09-18T04:08:04;23.35;;;21.35;;
12407;SDS011;6268;48.188;17.134;2023-09-18T04:10:33;25.27;;;23.00;;
12407;SDS011;6268;48.188;17.134;2023-09-18T04:13:04;24.88;;;22.75;;
12407;SDS011;6268;48.188;17.134;2023-09-18T04:15:33;24.33;;;22.23;;
12407;SDS011;6268;48.188;17.134;2023-09-18T04:18:04;23.92;;;21.63;;
12407;SDS011;6268;48.188;17.134;2023-09-18T04:20:33;23.52;;;21.40;;
12407;SDS011;6268;48.188;17.134;2023-09-18T04:23:19;22.73;;;20.75;;
12407;SDS011;6268;48.188;17.134;2023-09-18T04:25:50;25.15;;;22.88;;
12407;SDS011;6268;48.188;17.134;2023-09-18T04:28:21;23.92;;;21.85;;
12407;SDS011;6268;48.188;17.134;2023-09-18T04:30:50;24.70;;;22.55;;
12407;SDS011;6268;48.188;17.134;2023-09-18T04:33:19;24.77;;;22.55;;
12407;SDS011;6268;48.188;17.134;2023-09-18T04:35:49;24.67;;;22.52;;
12407;SDS011;6268;48.188;17.134;2023-09-18T04:38:18;24.17;;;22.20;;
12407;SDS011;6268;48.188;17.134;2023-09-18T04:40:46;23.23;;;21.13;;
12407;SDS011;6268;48.188;17.134;2023-09-18T04:43:15;25.02;;;22.80;;
12407;SDS011;6268;48.188;17.134;2023-09-18T04:45:45;28.60;;;25.98;;
12407;SDS011;6268;48.188;17.134;2023-09-18T04:48:14;23.73;;;21.73;;
12407;SDS011;6268;48.188;17.134;2023-09-18T04:50:42;24.42;;;22.27;;
12407;SDS011;6268;48.188;17.134;2023-09-18T04:53:12;23.27;;;21.02;;
12407;SDS011;6268;48.188;17.134;2023-09-18T04:55:41;23.73;;;21.35;;
12407;SDS011;6268;48.188;17.134;2023-09-18T04:58:09;23.42;;;21.17;;
12407;SDS011;6268;48.188;17.134;2023-09-18T05:00:38;22.20;;;20.20;;
12407;SDS011;6268;48.188;17.134;2023-09-18T05:03:08;22.20;;;20.20;;
12407;SDS011;6268;48.188;17.134;2023-09-18T05:05:37;21.30;;;19.50;;
12407;SDS011;6268;48.188;17.134;2023-09-18T05:08:07;21.17;;;19.38;;
12407;SDS011;6268;48.188;17.134;2023-09-18T05:10:35;20.27;;;18.38;;
12407;SDS011;6268;48.188;17.134;2023-09-18T05:13:04;19.65;;;17.75;;
12407;SDS011;6268;48.188;17.134;2023-09-18T05:15:34;19.98;;;18.02;;
12407;SDS011;6268;48.188;17.134;2023-09-18T05:18:03;19.45;;;17.63;;
12407;SDS011;6268;48.188;17.134;2023-09-18T05:20:35;18.63;;;16.75;;
12407;SDS011;6268;48.188;17.134;2023-09-18T05:23:03;17.55;;;16.00;;
12407;SDS011;6268;48.188;17.134;2023-09-18T05:25:33;18.75;;;17.15;;
12407;SDS011;6268;48.188;17.134;2023-09-18T05:28:05;17.67;;;16.02;;
12407;SDS011;6268;48.188;17.134;2023-09-18T05:30:34;17.38;;;15.88;;
12407;SDS011;6268;48.188;17.134;2023-09-18T05:33:05;17.08;;;15.57;;
12407;SDS011;6268;48.188;17.134;2023-09-18T05:35:39;17.45;;;15.77;;
12407;SDS011;6268;48.188;17.134;2023-09-18T05:38:08;17.75;;;16.23;;
12407;SDS011;6268;48.188;17.134;2023-09-18T05:40:40;16.52;;;14.98;;
12407;SDS011;6268;48.188;17.134;2023-09-18T05:43:10;15.68;;;14.32;;
12407;SDS011;6268;48.188;17.134;2023-09-18T05:45:39;17.10;;;15.70;;
12407;SDS011;6268;48.188;17.134;2023-09-18T05:48:08;17.02;;;15.52;;
12407;SDS011;6268;48.188;17.134;2023-09-18T05:50:38;15.60;;;14.10;;
12407;SDS011;6268;48.188;17.134;2023-09-18T05:53:08;16.48;;;15.07;;
12407;SDS011;6268;48.188;17.134;2023-09-18T05:55:37;17.88;;;15.40;;
12407;SDS011;6268;48.188;17.134;2023-09-18T05:58:06;16.25;;;14.75;;
12407;SDS011;6268;48.188;17.134;2023-09-18T06:00:34;15.75;;;14.40;;
12407;SDS011;6268;48.188;17.134;2023-09-18T06:03:03;18.00;;;16.20;;
12407;SDS011;6268;48.188;17.134;2023-09-18T06:05:33;25.42;;;22.85;;
12407;SDS011;6268;48.188;17.134;2023-09-18T06:08:04;15.27;;;13.97;;
12407;SDS011;6268;48.188;17.134;2023-09-18T06:10:33;17.13;;;15.65;;
12407;SDS011;6268;48.188;17.134;2023-09-18T06:13:01;14.80;;;13.57;;
12407;SDS011;6268;48.188;17.134;2023-09-18T06:15:32;16.42;;;14.75;;
12407;SDS011;6268;48.188;17.134;2023-09-18T06:18:01;14.30;;;12.98;;
12407;SDS011;6268;48.188;17.134;2023-09-18T06:20:31;16.00;;;12.05;;
12407;SDS011;6268;48.188;17.134;2023-09-18T06:22:59;13.55;;;12.38;;
12407;SDS011;6268;48.188;17.134;2023-09-18T06:25:31;13.82;;;12.43;;
12407;SDS011;6268;48.188;17.134;2023-09-18T06:28:00;13.18;;;12.07;;
12407;SDS011;6268;48.188;17.134;2023-09-18T06:30:30;13.45;;;12.07;;
12407;SDS011;6268;48.188;17.134;2023-09-18T06:32:59;12.73;;;11.73;;
12407;SDS011;6268;48.188;17.134;2023-09-18T06:35:30;12.45;;;11.45;;
12407;SDS011;6268;48.188;17.134;2023-09-18T06:37:59;12.60;;;11.38;;
12407;SDS011;6268;48.188;17.134;2023-09-18T06:40:28;13.73;;;12.52;;
12407;SDS011;6268;48.188;17.134;2023-09-18T06:43:01;12.02;;;11.02;;
12407;SDS011;6268;48.188;17.134;2023-09-18T06:45:29;12.75;;;11.77;;
12407;SDS011;6268;48.188;17.134;2023-09-18T06:48:00;12.95;;;11.65;;
12407;SDS011;6268;48.188;17.134;2023-09-18T06:50:28;11.73;;;10.80;;
12407;SDS011;6268;48.188;17.134;2023-09-18T06:52:57;13.25;;;11.98;;
12407;SDS011;6268;48.188;17.134;2023-09-18T06:55:26;11.18;;;10.27;;
12407;SDS011;6268;48.188;17.134;2023-09-18T06:57:54;15.27;;;13.88;;
12407;SDS011;6268;48.188;17.134;2023-09-18T07:00:24;11.98;;;10.88;;
12407;SDS011;6268;48.188;17.134;2023-09-18T07:02:53;13.77;;;12.23;;
12407;SDS011;6268;48.188;17.134;2023-09-18T07:05:22;10.63;;;9.63;;
12407;SDS011;6268;48.188;17.134;2023-09-18T07:07:51;11.20;;;10.13;;
12407;SDS011;6268;48.188;17.134;2023-09-18T07:10:19;10.98;;;10.07;;
12407;SDS011;6268;48.188;17.134;2023-09-18T07:12:48;10.40;;;9.45;;
12407;SDS011;6268;48.188;17.134;2023-09-18T07:15:17;11.88;;;10.70;;
12407;SDS011;6268;48.188;17.134;2023-09-18T07:17:47;11.07;;;10.00;;
12407;SDS011;6268;48.188;17.134;2023-09-18T07:20:16;10.93;;;9.80;;
12407;SDS011;6268;48.188;17.134;2023-09-18T07:22:46;9.52;;;8.50;;
12407;SDS011;6268;48.188;17.134;2023-09-18T07:25:15;10.98;;;8.65;;
12407;SDS011;6268;48.188;17.134;2023-09-18T07:27:44;12.23;;;10.82;;
12407;SDS011;6268;48.188;17.134;2023-09-18T07:30:13;11.82;;;10.63;;
12407;SDS011;6268;48.188;17.134;2023-09-18T07:32:44;12.20;;;10.85;;
12407;SDS011;6268;48.188;17.134;2023-09-18T07:35:14;11.00;;;10.18;;
12407;SDS011;6268;48.188;17.134;2023-09-18T07:37:43;11.70;;;10.60;;
12407;SDS011;6268;48.188;17.134;2023-09-18T07:40:13;11.68;;;10.73;;
12407;SDS011;6268;48.188;17.134;2023-09-18T07:42:43;11.13;;;10.13;;
12407;SDS011;6268;48.188;17.134;2023-09-18T07:45:12;9.73;;;8.85;;
12407;SDS011;6268;48.188;17.134;2023-09-18T07:47:41;12.57;;;11.50;;
12407;SDS011;6268;48.188;17.134;2023-09-18T07:50:10;14.50;;;13.35;;
12407;SDS011;6268;48.188;17.134;2023-09-18T07:52:40;16.38;;;14.70;;
12407;SDS011;6268;48.188;17.134;2023-09-18T07:55:08;15.50;;;13.90;;
12407;SDS011;6268;48.188;17.134;2023-09-18T07:57:37;17.85;;;16.23;;
12407;SDS011;6268;48.188;17.134;2023-09-18T08:00:07;14.75;;;13.38;;
12407;SDS011;6268;48.188;17.134;2023-09-18T08:02:39;16.90;;;15.40;;
12407;SDS011;6268;48.188;17.134;2023-09-18T08:05:09;15.57;;;13.98;;
12407;SDS011;6268;48.188;17.134;2023-09-18T08:07:39;15.50;;;13.90;;
12407;SDS011;6268;48.188;17.134;2023-09-18T08:10:08;15.82;;;14.18;;
12407;SDS011;6268;48.188;17.134;2023-09-18T08:12:39;15.93;;;13.13;;
12407;SDS011;6268;48.188;17.134;2023-09-18T08:15:09;16.17;;;14.60;;
12407;SDS011;6268;48.188;17.134;2023-09-18T08:17:37;16.63;;;14.93;;
12407;SDS011;6268;48.188;17.134;2023-09-18T08:20:08;14.82;;;13.57;;
12407;SDS011;6268;48.188;17.134;2023-09-18T08:22:42;14.52;;;12.95;;
12407;SDS011;6268;48.188;17.134;2023-09-18T08:25:11;14.13;;;12.73;;
12407;SDS011;6268;48.188;17.134;2023-09-18T08:27:40;14.52;;;13.23;;
12407;SDS011;6268;48.188;17.134;2023-09-18T08:30:11;13.32;;;11.13;;
12407;SDS011;6268;48.188;17.134;2023-09-18T08:32:41;14.45;;;13.15;;
12407;SDS011;6268;48.188;17.134;2023-09-18T08:35:11;12.20;;;11.00;;
12407;SDS011;6268;48.188;17.134;2023-09-18T08:37:40;14.10;;;11.32;;
12407;SDS011;6268;48.188;17.134;2023-09-18T08:40:10;13.98;;;12.77;;
12407;SDS011;6268;48.188;17.134;2023-09-18T08:42:44;13.45;;;12.25;;
12407;SDS011;6268;48.188;17.134;2023-09-18T08:45:15;14.70;;;13.10;;
12407;SDS011;6268;48.188;17.134;2023-09-18T08:47:50;13.90;;;11.38;;
12407;SDS011;6268;48.188;17.134;2023-09-18T08:50:21;13.68;;;12.48;;
12407;SDS011;6268;48.188;17.134;2023-09-18T08:52:51;13.65;;;11.63;;
12407;SDS011;6268;48.188;17.134;2023-09-18T08:55:20;12.60;;;11.35;;
12407;SDS011;6268;48.188;17.134;2023-09-18T08:57:49;13.38;;;12.13;;
12407;SDS011;6268;48.188;17.134;2023-09-18T09:00:19;13.18;;;10.63;;
12407;SDS011;6268;48.188;17.134;2023-09-18T09:02:48;11.50;;;10.60;;
12407;SDS011;6268;48.188;17.134;2023-09-18T09:05:19;12.88;;;11.20;;
12407;SDS011;6268;48.188;17.134;2023-09-18T09:07:48;11.57;;;10.68;;
12407;SDS011;6268;48.188;17.134;2023-09-18T09:10:19;11.63;;;10.43;;
12407;SDS011;6268;48.188;17.134;2023-09-18T09:12:48;11.13;;;10.05;;
12407;SDS011;6268;48.188;17.134;2023-09-18T09:15:20;10.82;;;9.93;;
12407;SDS011;6268;48.188;17.134;2023-09-18T09:17:50;11.73;;;10.60;;
12407;SDS011;6268;48.188;17.134;2023-09-18T09:20:20;12.15;;;11.15;;
12407;SDS011;6268;48.188;17.134;2023-09-18T09:22:48;13.82;;;12.45;;
12407;SDS011;6268;48.188;17.134;2023-09-18T09:25:25;11.68;;;10.73;;
12407;SDS011;6268;48.188;17.134;2023-09-18T09:27:58;11.75;;;10.68;;
12407;SDS011;6268;48.188;17.134;2023-09-18T09:30:27;11.75;;;10.65;;
12407;SDS011;6268;48.188;17.134;2023-09-18T09:32:57;11.30;;;10.40;;
12407;SDS011;6268;48.188;17.134;2023-09-18T09:35:30;11.43;;;10.45;;
12407;SDS011;6268;48.188;17.134;2023-09-18T09:38:00;10.98;;;9.88;;
12407;SDS011;6268;48.188;17.134;2023-09-18T09:40:38;12.23;;;9.77;;
12407;SDS011;6268;48.188;17.134;2023-09-18T09:43:07;11.23;;;10.23;;
12407;SDS011;6268;48.188;17.134;2023-09-18T09:45:37;10.38;;;9.40;;
12407;SDS011;6268;48.188;17.134;2023-09-18T09:48:07;10.40;;;9.40;;
12407;SDS011;6268;48.188;17.134;2023-09-18T09:50:43;13.48;;;10.80;;
12407;SDS011;6268;48.188;17.134;2023-09-18T09:53:15;10.88;;;9.98;;
12407;SDS011;6268;48.188;17.134;2023-09-18T09:55:51;9.70;;;8.95;;
12407;SDS011;6268;48.188;17.134;2023-09-18T09:58:26;9.82;;;9.00;;
12407;SDS011;6268;48.188;17.134;2023-09-18T10:01:00;10.18;;;9.18;;
12407;SDS011;6268;48.188;17.134;2023-09-18T10:03:35;9.88;;;9.18;;
12407;SDS011;6268;48.188;17.134;2023-09-18T10:06:06;10.70;;;9.70;;
12407;SDS011;6268;48.188;17.134;2023-09-18T10:08:37;10.48;;;9.50;;
12407;SDS011;6268;48.188;17.134;2023-09-18T10:11:09;11.52;;;10.40;;
12407;SDS011;6268;48.188;17.134;2023-09-18T10:13:46;10.57;;;9.68;;
12407;SDS011;6268;48.188;17.134;2023-09-18T10:16:19;10.63;;;9.75;;
12407;SDS011;6268;48.188;17.134;2023-09-18T10:18:55;11.10;;;9.85;;
12407;SDS011;6268;48.188;17.134;2023-09-18T10:21:37;9.73;;;8.93;;
12407;SDS011;6268;48.188;17.134;2023-09-18T10:24:12;10.63;;;9.57;;
12407;SDS011;6268;48.188;17.134;2023-09-18T10:26:48;12.77;;;10.20;;
12407;SDS011;6268;48.188;17.134;2023-09-18T10:29:22;10.98;;;9.85;;
12407;SDS011;6268;48.188;17.134;2023-09-18T10:31:52;11.05;;;10.15;;
12407;SDS011;6268;48.188;17.134;2023-09-18T10:34:22;11.15;;;10.27;;
12407;SDS011;6268;48.188;17.134;2023-09-18T10:36:51;11.15;;;10.25;;
12407;SDS011;6268;48.188;17.134;2023-09-18T10:39:23;10.52;;;9.73;;
12407;SDS011;6268;48.188;17.134;2023-09-18T10:41:58;12.13;;;10.90;;
12407;SDS011;6268;48.188;17.134;2023-09-18T10:44:30;11.90;;;11.00;;
12407;SDS011;6268;48.188;17.134;2023-09-18T10:47:00;13.63;;;12.38;;
12407;SDS011;6268;48.188;17.134;2023-09-18T10:49:32;14.88;;;13.38;;
12407;SDS011;6268;48.188;17.134;2023-09-18T10:52:02;12.07;;;11.07;;
12407;SDS011;6268;48.188;17.134;2023-09-18T10:54:31;12.23;;;10.95;;
12407;SDS011;6268;48.188;17.134;2023-09-18T10:57:06;13.90;;;11.77;;
12407;SDS011;6268;48.188;17.134;2023-09-18T10:59:34;12.60;;;11.60;;
12407;SDS011;6268;48.188;17.134;2023-09-18T11:02:13;13.10;;;11.25;;
12407;SDS011;6268;48.188;17.134;2023-09-18T11:04:43;12.98;;;11.48;;
12407;SDS011;6268;48.188;17.134;2023-09-18T11:07:19;13.25;;;10.60;;
12407;SDS011;6268;48.188;17.134;2023-09-18T11:09:48;12.00;;;10.82;;
12407;SDS011;6268;48.188;17.134;2023-09-18T11:12:18;12.52;;;11.32;;
12407;SDS011;6268;48.188;17.134;2023-09-18T11:14:47;13.30;;;12.15;;
12407;SDS011;6268;48.188;17.134;2023-09-18T11:17:28;11.93;;;10.93;;
12407;SDS011;6268;48.188;17.134;2023-09-18T11:20:05;11.50;;;10.60;;
12407;SDS011;6268;48.188;17.134;2023-09-18T11:22:36;11.02;;;10.00;;
12407;SDS011;6268;48.188;17.134;2023-09-18T11:28:08;12.30;;;10.35;;
12407;SDS011;6268;48.188;17.134;2023-09-18T11:30:52;13.02;;;11.82;;
12407;SDS011;6268;48.188;17.134;2023-09-18T11:33:32;12.27;;;11.18;;
12407;SDS011;6268;48.188;17.134;2023-09-18T11:36:03;9.80;;;8.90;;
12407;SDS011;6268;48.188;17.134;2023-09-18T11:38:51;9.73;;;8.25;;
12407;SDS011;6268;48.188;17.134;2023-09-18T11:41:23;9.80;;;8.55;;
12407;SDS011;6268;48.188;17.134;2023-09-18T11:43:56;9.10;;;7.85;;
12407;SDS011;6268;48.188;17.134;2023-09-18T11:47:03;10.25;;;8.50;;
12407;SDS011;6268;48.188;17.134;2023-09-18T11:49:40;9.95;;;9.02;;
12407;SDS011;6268;48.188;17.134;2023-09-18T11:52:13;8.85;;;8.15;;
12407;SDS011;6268;48.188;17.134;2023-09-18T11:54:42;8.65;;;7.95;;
12407;SDS011;6268;48.188;17.134;2023-09-18T11:57:12;9.23;;;8.38;;
12407;SDS011;6268;48.188;17.134;2023-09-18T11:59:42;8.50;;;7.50;;
12407;SDS011;6268;48.188;17.134;2023-09-18T12:02:13;9.40;;;7.60;;
12407;SDS011;6268;48.188;17.134;2023-09-18T12:04:55;8.07;;;7.28;;
12407;SDS011;6268;48.188;17.134;2023-09-18T12:07:24;8.18;;;7.25;;
12407;SDS011;6268;48.188;17.134;2023-09-18T12:09:52;8.55;;;7.85;;
12407;SDS011;6268;48.188;17.134;2023-09-18T12:12:22;8.52;;;7.68;;
12407;SDS011;6268;48.188;17.134;2023-09-18T12:14:54;7.68;;;6.97;;
12407;SDS011;6268;48.188;17.134;2023-09-18T12:17:23;7.25;;;6.75;;
12407;SDS011;6268;48.188;17.134;2023-09-18T12:19:52;9.32;;;7.20;;
12407;SDS011;6268;48.188;17.134;2023-09-18T12:22:24;12.70;;;7.10;;
12407;SDS011;6268;48.188;17.134;2023-09-18T12:24:55;7.60;;;6.90;;
12407;SDS011;6268;48.188;17.134;2023-09-18T12:27:41;11.25;;;7.47;;
12407;SDS011;6268;48.188;17.134;2023-09-18T12:30:12;8.07;;;7.32;;
12407;SDS011;6268;48.188;17.134;2023-09-18T12:32:47;7.47;;;6.53;;
12407;SDS011;6268;48.188;17.134;2023-09-18T12:35:16;7.38;;;6.65;;
12407;SDS011;6268;48.188;17.134;2023-09-18T12:37:45;7.45;;;6.07;;
12407;SDS011;6268;48.188;17.134;2023-09-18T12:40:22;9.77;;;6.97;;
12407;SDS011;6268;48.188;17.134;2023-09-18T12:42:51;6.97;;;6.35;;
12407;SDS011;6268;48.188;17.134;2023-09-18T12:45:23;10.77;;;7.10;;
12407;SDS011;6268;48.188;17.134;2023-09-18T12:47:53;17.15;;;15.05;;
12407;SDS011;6268;48.188;17.134;2023-09-18T12:50:24;10.15;;;8.63;;
12407;SDS011;6268;48.188;17.134;2023-09-18T12:52:53;8.77;;;7.28;;
12407;SDS011;6268;48.188;17.134;2023-09-18T12:55:23;17.00;;;13.18;;
12407;SDS011;6268;48.188;17.134;2023-09-18T12:57:52;11.82;;;9.95;;
12407;SDS011;6268;48.188;17.134;2023-09-18T13:00:23;11.98;;;6.72;;
12407;SDS011;6268;48.188;17.134;2023-09-18T13:02:53;6.15;;;5.65;;
12407;SDS011;6268;48.188;17.134;2023-09-18T13:05:23;9.35;;;5.78;;
12407;SDS011;6268;48.188;17.134;2023-09-18T13:07:53;7.10;;;5.72;;
12407;SDS011;6268;48.188;17.134;2023-09-18T13:10:23;10.82;;;5.95;;
12407;SDS011;6268;48.188;17.134;2023-09-18T13:12:54;6.82;;;5.78;;
12407;SDS011;6268;48.188;17.134;2023-09-18T13:15:26;8.27;;;6.45;;
12407;SDS011;6268;48.188;17.134;2023-09-18T13:17:59;8.10;;;6.60;;
12407;SDS011;6268;48.188;17.134;2023-09-18T13:20:31;6.97;;;6.03;;
12407;SDS011;6268;48.188;17.134;2023-09-18T13:22:59;10.30;;;6.20;;
12407;SDS011;6268;48.188;17.134;2023-09-18T13:25:31;7.38;;;6.68;;
12407;SDS011;6268;48.188;17.134;2023-09-18T13:28:02;9.85;;;6.60;;
12407;SDS011;6268;48.188;17.134;2023-09-18T13:30:33;6.93;;;6.25;;
12407;SDS011;6268;48.188;17.134;2023-09-18T13:33:06;7.03;;;6.53;;
12407;SDS011;6268;48.188;17.134;2023-09-18T13:35:36;7.47;;;6.40;;
12407;SDS011;6268;48.188;17.134;2023-09-18T13:38:06;9.45;;;7.32;;
12407;SDS011;6268;48.188;17.134;2023-09-18T13:40:37;8.63;;;7.03;;
12407;SDS011;6268;48.188;17.134;2023-09-18T13:43:08;9.30;;;6.80;;
12407;SDS011;6268;48.188;17.134;2023-09-18T13:45:38;7.55;;;6.80;;
12407;SDS011;6268;48.188;17.134;2023-09-18T13:48:08;9.50;;;6.78;;
12407;SDS011;6268;48.188;17.134;2023-09-18T13:50:37;8.15;;;6.03;;
12407;SDS011;6268;48.188;17.134;2023-09-18T13:53:06;10.40;;;7.47;;
12407;SDS011;6268;48.188;17.134;2023-09-18T13:55:34;10.88;;;8.52;;
12407;SDS011;6268;48.188;17.134;2023-09-18T13:58:03;14.95;;;12.23;;
12407;SDS011;6268;48.188;17.134;2023-09-18T14:00:32;9.82;;;7.15;;
12407;SDS011;6268;48.188;17.134;2023-09-18T14:03:02;9.15;;;7.38;;
12407;SDS011;6268;48.188;17.134;2023-09-18T14:05:31;8.02;;;7.20;;
12407;SDS011;6268;48.188;17.134;2023-09-18T14:08:01;8.57;;;7.00;;
12407;SDS011;6268;48.188;17.134;2023-09-18T14:10:30;10.18;;;7.00;;
12407;SDS011;6268;48.188;17.134;2023-09-18T14:12:59;7.78;;;5.82;;
12407;SDS011;6268;48.188;17.134;2023-09-18T14:15:27;13.02;;;6.88;;
12407;SDS011;6268;48.188;17.134;2023-09-18T14:17:56;7.25;;;6.32;;
12407;SDS011;6268;48.188;17.134;2023-09-18T14:20:27;10.60;;;6.80;;
12407;SDS011;6268;48.188;17.134;2023-09-18T14:22:55;10.50;;;7.57;;
12407;SDS011;6268;48.188;17.134;2023-09-18T14:25:24;10.52;;;7.93;;
12407;SDS011;6268;48.188;17.134;2023-09-18T14:27:52;11.77;;;6.70;;
12407;SDS011;6268;48.188;17.134;2023-09-18T14:30:21;8.43;;;6.53;;
12407;SDS011;6268;48.188;17.134;2023-09-18T14:32:56;8.10;;;6.28;;
12407;SDS011;6268;48.188;17.134;2023-09-18T14:35:28;7.18;;;6.53;;
12407;SDS011;6268;48.188;17.134;2023-09-18T14:37:57;8.18;;;6.40;;
12407;SDS011;6268;48.188;17.134;2023-09-18T14:40:26;10.00;;;6.82;;
12407;SDS011;6268;48.188;17.134;2023-09-18T14:42:54;9.68;;;6.30;;
12407;SDS011;6268;48.188;17.134;2023-09-18T14:45:23;8.30;;;6.25;;
12407;SDS011;6268;48.188;17.134;2023-09-18T14:47:51;7.00;;;6.30;;
12407;SDS011;6268;48.188;17.134;2023-09-18T14:50:20;15.13;;;13.50;;